Wilkes Barre Scranton International Airport
KAVP : now visible

Airfield :











YOU CAN JOIN US ON...

 
LOGIN :

Register | Disclaimer

   EN    FR    IT 

 









Legend :    VFR   Marginal VFR   IFR   Intensive IFR   Very Intensive IFR
Visi :
Ceiling :
>= 8 km
>= 3000ft
5 to 8 km
1000 to 3000 ft
1500m to 5 km
500 to 1000 ft
800 to 1500m
200 to 500 ft
< 800m
< 200 ft
Symbols :   Thunderstorms  Fog  Heavy snow  Heavy precipitations  Wind > 20 kt






- Airport Elevation : 962 ft
- IATA code : AVP


KAVP - Wilkes Barre Scranton International

CURRENT METAR :
  • 212054Z 33014G19KT 10SM BKN030 OVC036 04/M02 A2974 RMK AO2 SLP075 60001 T00391022 50001

EXPIRED METARs :
  • 211954Z 31015G25KT 10SM SCT027 OVC033 04/M01 A2974 RMK AO2 SLP074 T00391011
  • 211922Z 33014G20KT 10SM SCT015 BKN023 OVC032 04/00 A2974 RMK AO2 T00390000
  • 211902Z 32009G17KT 10SM BKN013 BKN021 OVC025 04/01 A2974 RMK AO2 T00390006
  • 211854Z 31011KT 9SM SCT010 OVC015 03/01 A2974 RMK AO2 SNE51 SLP075 P0001 T00330006
  • 211831Z 33006KT 2SM -SN BR BKN010 OVC015 02/00 A2975 RMK AO2 VIS 1 1/4V5 P0001 T00170000
  • 211814Z 32008G14KT 1 1/4SM R04/4000VP6000FT -SN BR FEW008 OVC014 02/M01 A2975 RMK AO2 P0000 T00171006

TAF KAVP
Valid from the 21 at 18:00 until the 22 at 18:00 UTC


211739Z 2118/2218 28010G16KT 3SM -SHSN BR OVC015
TEMPO 2118/2119 1SM -SHSN BR BKN025
FM212000 32012G22KT 5SM -DZ BR OVC020
FM220100 31010KT 3SM -SHSN OVC025
FM220700 30012G22KT P6SM BKN050
KZNY FIR / North America



MET'MAP, your aeronautical weather chart ! - Copyright ORBIFLY December 2007 - Disclaimer

ORBIFLY MET'MAP TEAM :

Programming & Development : Alexandra Zaïnal
Concept & original design : Baudouin d'Aumeries
Assistance for programming : Marc-Olivier Méhu
Technical & hardware support : Manuel Goepfert

Contact : metmap@orbifly.com




SOURCES & CREDITS :

   NOAA       Earth
Advisory